createdAt,value
2017-09-26T00:02:27.260Z,20.40
2017-09-26T00:05:01.598Z,21.08
2017-09-26T00:07:36.127Z,20.90
2017-09-26T00:10:11.367Z,21.10
2017-09-26T00:12:46.106Z,19.62
2017-09-26T00:15:20.672Z,20.92
2017-09-26T00:17:55.059Z,21.73
2017-09-26T00:20:29.563Z,20.85
2017-09-26T00:23:04.109Z,21.20
2017-09-26T00:25:38.572Z,22.83
2017-09-26T00:28:13.056Z,20.40
2017-09-26T00:30:47.504Z,20.67
2017-09-26T00:33:21.893Z,21.65
2017-09-26T00:36:11.052Z,21.00
2017-09-26T00:38:46.611Z,21.50
2017-09-26T00:41:20.902Z,21.80
2017-09-26T00:43:55.331Z,21.12
2017-09-26T00:46:30.605Z,21.98
2017-09-26T00:49:05.256Z,21.73
2017-09-26T00:51:39.769Z,21.42
2017-09-26T00:54:14.285Z,20.70
2017-09-26T00:56:48.803Z,21.90
2017-09-26T00:59:23.162Z,21.60
2017-09-26T01:01:58.365Z,22.30
2017-09-26T01:04:32.984Z,21.87
2017-09-26T01:07:10.773Z,24.12
2017-09-26T01:09:45.931Z,20.05
2017-09-26T01:12:20.401Z,21.60
2017-09-26T01:14:54.797Z,21.85
2017-09-26T01:17:29.322Z,22.48
2017-09-26T01:20:03.859Z,20.60
2017-09-26T01:22:38.224Z,23.20
2017-09-26T01:25:12.607Z,22.77
2017-09-26T01:27:47.008Z,20.88
2017-09-26T01:30:21.495Z,23.33
2017-09-26T01:32:55.827Z,22.95
2017-09-26T01:35:30.235Z,22.48
2017-09-26T01:38:04.624Z,21.50
2017-09-26T01:54:24.032Z,19.92
2017-09-26T01:57:03.048Z,21.92
2017-09-26T01:59:41.799Z,20.88
2017-09-26T02:02:17.087Z,22.70
2017-09-26T02:04:51.621Z,20.70
2017-09-26T02:07:25.964Z,21.33
2017-09-26T02:10:00.339Z,21.85
2017-09-26T02:12:34.837Z,23.12
2017-09-26T02:15:09.315Z,21.85
2017-09-26T02:17:43.732Z,21.52
2017-09-26T02:20:18.239Z,22.40
2017-09-26T02:22:53.536Z,22.10
2017-09-26T02:25:27.977Z,21.85
2017-09-26T02:28:02.352Z,23.75
2017-09-26T02:30:36.819Z,21.58
2017-09-26T02:33:11.388Z,22.95
2017-09-26T02:35:45.789Z,23.62
2017-09-26T02:38:20.944Z,22.52
2017-09-26T02:40:55.259Z,23.25
2017-09-26T02:43:29.636Z,21.52
2017-09-26T02:46:04.884Z,23.40
2017-09-26T02:48:39.358Z,25.52
2017-09-26T02:51:13.823Z,22.95
2017-09-26T02:53:48.158Z,24.33
2017-09-26T02:56:22.895Z,24.98
2017-09-26T02:58:57.405Z,24.95
2017-09-26T03:01:31.840Z,25.10
2017-09-26T03:04:06.341Z,25.40
2017-09-26T03:06:40.727Z,24.17
2017-09-26T03:09:15.975Z,23.17
2017-09-26T03:11:50.356Z,24.10
2017-09-26T03:14:24.723Z,26.92
2017-09-26T03:16:59.193Z,24.52
2017-09-26T03:19:33.635Z,25.58
2017-09-26T03:22:08.246Z,26.55
2017-09-26T03:24:42.558Z,25.85
2017-09-26T03:27:16.952Z,25.45
2017-09-26T03:29:52.047Z,24.95
2017-09-26T03:32:26.789Z,24.63
2017-09-26T03:35:01.319Z,25.77
2017-09-26T03:37:36.059Z,26.60
2017-09-26T03:40:10.551Z,26.12
2017-09-26T03:42:44.995Z,25.30
2017-09-26T03:45:19.383Z,26.33
2017-09-26T03:47:53.785Z,26.00
2017-09-26T03:50:29.075Z,26.62
2017-09-26T03:53:03.800Z,28.20
2017-09-26T03:55:38.301Z,27.45
2017-09-26T03:58:13.719Z,27.60
2017-09-26T04:00:48.221Z,26.90
2017-09-26T04:03:22.704Z,28.95
2017-09-26T04:05:57.739Z,28.65
2017-09-26T04:08:32.313Z,26.77
2017-09-26T04:11:06.625Z,27.62
2017-09-26T04:13:41.003Z,29.17
2017-09-26T04:16:15.555Z,30.15
2017-09-26T04:18:49.908Z,29.35
2017-09-26T04:21:24.341Z,27.65
2017-09-26T04:23:58.887Z,28.80
2017-09-26T04:26:33.314Z,29.30
2017-09-26T04:29:07.827Z,30.95
2017-09-26T04:31:42.244Z,31.30
2017-09-26T04:34:16.573Z,30.17
2017-09-26T04:36:51.193Z,30.70
2017-09-26T04:39:25.655Z,29.90
2017-09-26T04:42:00.147Z,32.53
2017-09-26T04:44:34.653Z,33.78
2017-09-26T04:47:08.991Z,31.42
2017-09-26T04:49:43.431Z,29.70
2017-09-26T04:52:17.814Z,29.77
2017-09-26T04:54:52.300Z,32.08
2017-09-26T04:57:26.852Z,34.38
2017-09-26T05:00:01.355Z,34.20
2017-09-26T05:02:35.901Z,33.63
2017-09-26T05:05:10.442Z,31.90
2017-09-26T05:07:44.934Z,33.42
2017-09-26T05:10:19.315Z,33.05
2017-09-26T05:12:53.679Z,34.75
2017-09-26T05:15:28.162Z,32.90
2017-09-26T05:18:02.971Z,31.73
2017-09-26T05:20:37.303Z,33.67
2017-09-26T05:23:11.673Z,32.88
2017-09-26T05:25:46.172Z,31.98
2017-09-26T05:28:20.804Z,32.65
2017-09-26T05:30:55.366Z,32.15
2017-09-26T05:33:29.885Z,31.67
2017-09-26T05:36:04.418Z,32.92
2017-09-26T05:38:38.880Z,33.25
2017-09-26T05:41:14.088Z,33.95
2017-09-26T05:43:49.439Z,32.58
2017-09-26T05:46:23.988Z,38.05
2017-09-26T05:48:58.547Z,31.67
2017-09-26T05:51:33.110Z,32.65
2017-09-26T05:54:07.523Z,32.80
2017-09-26T05:56:41.916Z,31.35
2017-09-26T05:59:16.389Z,32.85
2017-09-26T06:01:50.818Z,29.60
2017-09-26T06:04:25.303Z,33.35
2017-09-26T06:07:00.589Z,29.85
2017-09-26T06:09:35.688Z,33.00
2017-09-26T06:12:10.156Z,32.45
2017-09-26T06:14:44.599Z,30.20
2017-09-26T06:17:19.218Z,30.83
2017-09-26T06:19:53.728Z,31.45
2017-09-26T06:22:28.083Z,32.33
2017-09-26T06:25:02.613Z,30.75
2017-09-26T06:27:37.141Z,34.30
2017-09-26T06:30:12.378Z,30.88
2017-09-26T06:32:47.035Z,30.62
2017-09-26T06:35:21.626Z,32.42
2017-09-26T06:37:56.195Z,31.92
2017-09-26T06:40:30.745Z,32.95
2017-09-26T06:43:05.132Z,33.33
2017-09-26T06:45:40.323Z,33.63
2017-09-26T06:48:14.849Z,34.55
2017-09-26T06:50:49.180Z,33.40
2017-09-26T06:53:23.603Z,34.35
2017-09-26T06:55:58.106Z,32.92
2017-09-26T06:58:32.444Z,33.83
2017-09-26T07:01:06.889Z,34.15
2017-09-26T07:03:41.467Z,34.13
2017-09-26T07:06:15.873Z,31.15
2017-09-26T07:08:50.316Z,31.62
2017-09-26T07:11:24.833Z,34.65
2017-09-26T07:13:59.296Z,34.33
2017-09-26T07:16:33.783Z,34.42
2017-09-26T07:19:08.286Z,35.03
2017-09-26T07:21:42.859Z,34.05
2017-09-26T07:24:17.391Z,34.30
2017-09-26T07:26:51.944Z,34.65
2017-09-26T07:29:26.322Z,33.95
2017-09-26T07:32:00.784Z,33.47
2017-09-26T07:34:35.164Z,34.08
2017-09-26T07:37:09.516Z,33.85
2017-09-26T07:39:43.952Z,33.33
2017-09-26T07:42:18.452Z,32.58
2017-09-26T07:44:52.892Z,34.80
2017-09-26T07:47:27.311Z,32.08
2017-09-26T07:50:01.737Z,36.63
2017-09-26T07:52:36.264Z,33.78
2017-09-26T07:55:10.996Z,33.92
2017-09-26T07:57:45.528Z,34.38
2017-09-26T08:00:20.069Z,35.00
2017-09-26T08:02:54.561Z,33.47
2017-09-26T08:05:30.107Z,32.05
2017-09-26T08:08:04.860Z,33.72
2017-09-26T08:10:39.513Z,33.80
2017-09-26T08:13:15.122Z,33.83
2017-09-26T08:15:49.677Z,37.88
2017-09-26T08:18:24.121Z,33.20
2017-09-26T08:20:58.922Z,35.00
2017-09-26T08:23:33.352Z,33.65
2017-09-26T08:26:07.745Z,33.78
2017-09-26T08:28:42.187Z,35.45
2017-09-26T08:31:16.798Z,33.83
2017-09-26T08:33:51.321Z,34.30
2017-09-26T08:36:25.813Z,34.65
2017-09-26T08:39:00.293Z,34.03
2017-09-26T08:41:34.722Z,33.55
2017-09-26T08:44:09.870Z,33.08
2017-09-26T08:46:44.345Z,33.30
2017-09-26T08:49:18.699Z,34.47
2017-09-26T08:51:53.179Z,31.17
2017-09-26T08:54:27.967Z,33.00
2017-09-26T08:57:02.475Z,31.52
2017-09-26T08:59:36.909Z,33.38
2017-09-26T09:02:11.356Z,32.35
2017-09-26T09:04:45.694Z,32.85
2017-09-26T09:07:20.175Z,32.97
2017-09-26T09:09:55.473Z,34.67
2017-09-26T09:12:29.974Z,34.85
2017-09-26T09:15:04.560Z,33.67
2017-09-26T09:17:39.062Z,32.35
2017-09-26T09:20:13.911Z,34.78
2017-09-26T09:22:49.137Z,32.70
2017-09-26T09:25:23.628Z,35.17
2017-09-26T09:27:58.048Z,34.70
2017-09-26T09:30:32.507Z,37.28
2017-09-26T09:33:06.907Z,36.42
2017-09-26T09:35:41.323Z,49.90
2017-09-26T09:38:15.765Z,35.72
2017-09-26T09:40:50.421Z,34.75
2017-09-26T09:43:25.695Z,38.25
2017-09-26T09:46:00.079Z,36.92
2017-09-26T09:48:34.560Z,36.20
2017-09-26T09:51:09.280Z,36.33
2017-09-26T09:53:43.655Z,37.65
2017-09-26T09:56:18.175Z,38.70
2017-09-26T09:58:52.711Z,38.28
2017-09-26T10:01:27.160Z,35.63
2017-09-26T10:04:01.489Z,38.83
2017-09-26T10:06:36.655Z,36.45
2017-09-26T10:09:11.105Z,40.08
2017-09-26T10:11:45.448Z,38.80
2017-09-26T10:14:22.167Z,37.97
2017-09-26T10:17:00.149Z,37.40
2017-09-26T10:19:35.448Z,33.17
2017-09-26T10:22:09.791Z,39.10
2017-09-26T10:24:44.343Z,37.03
2017-09-26T10:27:20.287Z,36.50
2017-09-26T10:29:54.793Z,37.90
2017-09-26T10:32:29.710Z,34.85
2017-09-26T10:35:04.263Z,37.00
2017-09-26T10:37:38.768Z,34.70
2017-09-26T10:40:13.223Z,32.65
2017-09-26T10:42:47.699Z,34.45
2017-09-26T10:45:22.831Z,35.92
2017-09-26T10:47:59.045Z,35.55
2017-09-26T10:50:34.621Z,32.50
2017-09-26T10:53:09.868Z,34.00
2017-09-26T10:55:44.216Z,34.83
2017-09-26T10:58:19.401Z,33.90
2017-09-26T11:00:53.816Z,32.53
2017-09-26T11:03:28.302Z,33.13
2017-09-26T11:06:02.735Z,35.22
2017-09-26T11:08:37.272Z,36.63
2017-09-26T11:11:11.760Z,35.08
2017-09-26T11:13:46.624Z,35.20
2017-09-26T11:16:21.108Z,34.50
2017-09-26T11:18:55.546Z,36.95
2017-09-26T11:21:29.904Z,34.22
2017-09-26T11:24:05.070Z,34.72
2017-09-26T11:26:39.589Z,39.05
2017-09-26T11:29:14.014Z,36.65
2017-09-26T11:31:48.523Z,35.03
2017-09-26T11:34:23.157Z,33.75
2017-09-26T11:36:57.916Z,35.28
2017-09-26T11:39:32.316Z,35.67
2017-09-26T11:42:06.705Z,32.30
2017-09-26T11:44:41.043Z,34.08
2017-09-26T11:47:15.444Z,34.90
2017-09-26T11:49:49.817Z,34.65
2017-09-26T11:52:24.274Z,34.60
2017-09-26T11:54:59.561Z,35.30
2017-09-26T11:57:33.897Z,36.92
2017-09-26T12:00:08.287Z,35.75
2017-09-26T12:02:42.647Z,34.65
2017-09-26T12:05:17.123Z,36.88
2017-09-26T12:07:51.582Z,37.03
2017-09-26T12:10:26.051Z,34.65
2017-09-26T12:13:06.195Z,35.05
2017-09-26T12:15:40.630Z,34.05
2017-09-26T12:18:14.942Z,32.50
2017-09-26T12:20:49.519Z,36.35
2017-09-26T12:23:24.043Z,33.63
2017-09-26T12:25:58.516Z,32.28
2017-09-26T12:28:33.057Z,32.45
2017-09-26T12:31:07.575Z,33.60
2017-09-26T12:33:42.053Z,35.25
2017-09-26T12:36:16.488Z,33.53
2017-09-26T12:38:50.900Z,34.72
2017-09-26T12:41:25.666Z,32.97
2017-09-26T12:44:00.296Z,33.85
2017-09-26T12:46:34.780Z,36.20
2017-09-26T12:49:10.614Z,39.30
2017-09-26T12:51:45.096Z,40.90
2017-09-26T12:54:19.536Z,40.63
2017-09-26T12:56:54.836Z,42.25
2017-09-26T12:59:29.299Z,43.70
2017-09-26T13:02:03.810Z,41.22
2017-09-26T13:04:39.004Z,42.55
2017-09-26T13:07:13.415Z,44.00
2017-09-26T13:09:47.926Z,41.85
2017-09-26T13:12:22.575Z,43.08
2017-09-26T13:14:56.906Z,39.53
2017-09-26T13:17:31.240Z,43.75
2017-09-26T13:20:06.404Z,40.35
2017-09-26T13:22:41.040Z,45.35
2017-09-26T13:25:15.597Z,42.62
2017-09-26T13:27:49.905Z,43.70
2017-09-26T13:30:24.367Z,43.70
2017-09-26T13:32:59.048Z,43.40
2017-09-26T13:35:33.339Z,40.80
2017-09-26T13:38:07.908Z,41.08
2017-09-26T13:40:43.003Z,39.05
2017-09-26T13:43:17.474Z,41.53
2017-09-26T13:45:51.933Z,39.33
2017-09-26T13:48:27.415Z,39.42
2017-09-26T13:51:01.916Z,43.33
2017-09-26T13:53:37.040Z,44.42
2017-09-26T13:56:11.452Z,45.28
2017-09-26T13:58:45.898Z,42.55
2017-09-26T14:01:20.415Z,45.38
2017-09-26T14:03:54.832Z,43.50
2017-09-26T14:06:29.322Z,43.75
2017-09-26T14:09:03.843Z,44.00
2017-09-26T14:11:38.318Z,39.30
2017-09-26T14:14:12.719Z,42.08
2017-09-26T14:16:47.056Z,45.03
2017-09-26T14:19:21.635Z,43.67
2017-09-26T14:21:56.154Z,43.60
2017-09-26T14:24:31.300Z,42.25
2017-09-26T14:27:05.775Z,40.90
2017-09-26T14:29:40.992Z,42.33
2017-09-26T14:32:15.567Z,41.00
2017-09-26T14:34:50.117Z,41.22
2017-09-26T14:37:24.545Z,38.88
2017-09-26T14:39:59.566Z,39.25
2017-09-26T14:42:34.068Z,36.83
2017-09-26T14:45:08.860Z,36.28
2017-09-26T14:47:43.355Z,37.10
2017-09-26T14:50:17.848Z,40.88
2017-09-26T14:52:52.683Z,38.38
2017-09-26T14:55:27.186Z,41.75
2017-09-26T14:58:01.697Z,40.47
2017-09-26T15:00:36.392Z,39.10
2017-09-26T15:03:10.888Z,37.72
2017-09-26T15:05:45.339Z,38.75
2017-09-26T15:08:19.999Z,38.78
2017-09-26T15:10:54.441Z,38.20
2017-09-26T15:13:29.168Z,38.42
2017-09-26T15:16:03.718Z,42.10
2017-09-26T15:18:38.274Z,36.33
2017-09-26T15:21:13.439Z,39.53
2017-09-26T15:23:47.860Z,36.58
2017-09-26T15:26:22.365Z,35.38
2017-09-26T15:28:57.232Z,37.83
2017-09-26T15:31:31.663Z,35.08
2017-09-26T15:34:06.872Z,37.55
2017-09-26T15:36:41.227Z,34.85
2017-09-26T15:39:15.735Z,38.05
2017-09-26T15:41:50.125Z,37.25
2017-09-26T15:44:26.763Z,36.85
2017-09-26T15:47:02.033Z,36.08
2017-09-26T15:49:36.583Z,37.53
2017-09-26T15:52:11.140Z,37.75
2017-09-26T15:54:45.613Z,33.80
2017-09-26T15:57:20.078Z,37.53
2017-09-26T15:59:54.618Z,36.90
2017-09-26T16:02:29.108Z,33.95
2017-09-26T16:05:04.419Z,34.30
2017-09-26T16:07:38.856Z,36.63
2017-09-26T16:10:14.382Z,34.22
2017-09-26T16:12:49.047Z,32.42
2017-09-26T16:15:23.603Z,33.65
2017-09-26T16:17:57.911Z,32.75
2017-09-26T16:20:32.442Z,33.85
2017-09-26T16:23:06.911Z,32.08
2017-09-26T16:25:41.267Z,33.72
2017-09-26T16:28:15.793Z,33.55
2017-09-26T16:30:51.089Z,36.17
2017-09-26T16:33:25.599Z,32.40
2017-09-26T16:36:00.038Z,32.33
2017-09-26T16:38:34.442Z,32.47
2017-09-26T16:41:10.123Z,31.80
2017-09-26T16:43:44.461Z,32.67
2017-09-26T16:46:18.911Z,32.47
2017-09-26T16:48:53.383Z,33.17
2017-09-26T16:51:28.699Z,32.95
2017-09-26T16:54:03.056Z,36.08
2017-09-26T16:56:37.671Z,35.25
2017-09-26T16:59:12.040Z,36.38
2017-09-26T17:01:46.786Z,34.88
2017-09-26T17:04:21.270Z,35.70
2017-09-26T17:06:56.130Z,38.25
2017-09-26T17:09:30.699Z,37.20
2017-09-26T17:12:05.841Z,38.40
2017-09-26T17:14:40.217Z,36.63
2017-09-26T17:17:14.957Z,38.42
2017-09-26T17:19:49.428Z,38.83
2017-09-26T17:22:24.117Z,37.40
2017-09-26T17:24:58.685Z,38.72
2017-09-26T17:27:33.178Z,39.75
2017-09-26T17:30:07.641Z,38.50
2017-09-26T17:32:42.107Z,37.33
2017-09-26T17:35:16.581Z,37.78
2017-09-26T17:37:51.073Z,39.13
2017-09-26T17:40:25.411Z,38.28
2017-09-26T17:42:59.967Z,39.85
2017-09-26T17:45:34.292Z,40.03
2017-09-26T17:48:08.787Z,41.63
2017-09-26T17:50:43.229Z,41.47
2017-09-26T17:53:17.825Z,41.03
2017-09-26T17:55:52.255Z,39.47
2017-09-26T17:58:26.725Z,40.10
2017-09-26T18:01:01.257Z,40.20
2017-09-26T18:03:35.789Z,38.75
2017-09-26T18:06:10.384Z,40.60
2017-09-26T18:08:44.764Z,37.15
2017-09-26T18:11:19.225Z,41.13
2017-09-26T18:13:54.041Z,42.97
2017-09-26T18:16:28.618Z,40.45
2017-09-26T18:19:02.986Z,40.35
2017-09-26T18:21:37.465Z,38.95
2017-09-26T18:24:11.927Z,40.10
2017-09-26T18:26:46.498Z,39.72
2017-09-26T18:29:21.173Z,39.53
2017-09-26T18:31:55.976Z,38.80
2017-09-26T18:34:30.732Z,39.33
2017-09-26T18:37:05.571Z,43.55
2017-09-26T18:39:40.476Z,40.70
2017-09-26T18:42:15.222Z,41.63
2017-09-26T18:44:50.167Z,39.15
2017-09-26T18:47:24.816Z,44.10
2017-09-26T18:49:59.725Z,42.20
2017-09-26T18:52:34.660Z,42.50
2017-09-26T18:55:09.588Z,39.00
2017-09-26T18:57:44.306Z,43.42
2017-09-26T19:00:19.145Z,40.97
2017-09-26T19:02:54.247Z,40.95
2017-09-26T19:05:29.260Z,43.72
2017-09-26T19:08:04.375Z,40.97
2017-09-26T19:10:39.433Z,41.92
2017-09-26T19:13:14.225Z,42.97
2017-09-26T19:15:49.058Z,39.67
2017-09-26T19:18:24.160Z,41.53
2017-09-26T19:20:59.730Z,39.42
2017-09-26T19:23:34.508Z,40.10
2017-09-26T19:26:09.539Z,39.30
2017-09-26T19:28:44.306Z,39.55
2017-09-26T19:31:19.385Z,42.08
2017-09-26T19:33:54.287Z,41.28
2017-09-26T19:36:29.817Z,39.75
2017-09-26T19:39:05.444Z,40.45
2017-09-26T19:41:43.385Z,38.63
2017-09-26T19:44:20.210Z,40.10
2017-09-26T19:46:56.023Z,37.63
2017-09-26T19:49:31.610Z,41.00
2017-09-26T19:52:07.103Z,40.75
2017-09-26T19:54:42.133Z,38.05
2017-09-26T19:57:17.430Z,40.20
2017-09-26T19:59:57.731Z,39.72
2017-09-26T20:02:34.362Z,39.83
2017-09-26T20:05:10.149Z,40.22
2017-09-26T20:07:46.719Z,39.95
2017-09-26T20:10:22.220Z,42.17
2017-09-26T20:12:59.593Z,39.67
2017-09-26T20:15:35.602Z,38.75
2017-09-26T20:18:13.414Z,40.65
2017-09-26T20:20:49.604Z,41.50
2017-09-26T20:23:25.536Z,42.60
2017-09-26T20:26:02.500Z,40.08
2017-09-26T20:28:36.962Z,41.17
2017-09-26T20:31:11.535Z,41.15
2017-09-26T20:33:48.656Z,40.00
2017-09-26T20:36:23.597Z,41.05
2017-09-26T20:38:58.240Z,41.30
2017-09-26T20:41:32.646Z,40.55
2017-09-26T20:44:09.154Z,39.05
2017-09-26T20:46:43.588Z,43.87
2017-09-26T20:49:18.101Z,42.92
2017-09-26T20:51:52.670Z,42.15
2017-09-26T20:54:27.983Z,43.78
2017-09-26T20:57:03.564Z,41.67
2017-09-26T20:59:38.140Z,43.28
2017-09-26T21:02:12.619Z,41.42
2017-09-26T21:04:47.128Z,40.17
2017-09-26T21:07:21.778Z,39.17
2017-09-26T21:09:56.217Z,41.22
2017-09-26T21:12:30.665Z,44.00
2017-09-26T21:15:05.305Z,40.50
2017-09-26T21:17:39.788Z,40.67
2017-09-26T21:20:14.946Z,41.17
2017-09-26T21:22:49.344Z,40.05
2017-09-26T21:25:24.218Z,41.40
2017-09-26T21:27:58.588Z,41.90
2017-09-26T21:30:33.137Z,41.33
2017-09-26T21:33:07.447Z,40.40
2017-09-26T21:35:41.877Z,41.95
2017-09-26T21:38:17.335Z,41.05
2017-09-26T21:40:51.780Z,37.63
2017-09-26T21:43:26.333Z,40.72
2017-09-26T21:46:01.507Z,41.45
2017-09-26T21:48:35.916Z,39.30
2017-09-26T21:51:11.172Z,40.12
2017-09-26T21:53:45.711Z,38.97
2017-09-26T21:56:20.191Z,39.70
2017-09-26T21:58:54.590Z,40.67
2017-09-26T22:01:28.985Z,41.03
2017-09-26T22:04:03.562Z,38.33
2017-09-26T22:06:38.205Z,40.65
2017-09-26T22:09:12.721Z,41.00
2017-09-26T22:11:47.135Z,39.08
2017-09-26T22:14:21.699Z,39.80
2017-09-26T22:16:56.212Z,37.50
2017-09-26T22:19:31.401Z,37.10
2017-09-26T22:22:06.663Z,38.25
2017-09-26T22:24:41.162Z,40.97
2017-09-26T22:27:15.696Z,39.05
2017-09-26T22:29:50.922Z,39.92
2017-09-26T22:32:26.179Z,39.13
2017-09-26T22:35:00.507Z,40.60
2017-09-26T22:37:34.984Z,40.12
2017-09-26T22:40:09.431Z,37.90
2017-09-26T22:42:43.848Z,39.05
2017-09-26T22:45:18.252Z,42.08
2017-09-26T22:47:52.587Z,40.67
2017-09-26T22:50:27.171Z,39.95
2017-09-26T22:53:02.432Z,40.67
2017-09-26T22:55:36.766Z,39.47
2017-09-26T22:58:11.281Z,41.13
2017-09-26T23:00:45.766Z,40.53
2017-09-26T23:03:20.347Z,39.13
2017-09-26T23:05:54.759Z,40.90
2017-09-26T23:08:29.488Z,41.55
2017-09-26T23:11:03.991Z,38.95
2017-09-26T23:13:38.380Z,40.35
2017-09-26T23:16:12.751Z,37.63
2017-09-26T23:18:47.167Z,35.00
2017-09-26T23:21:21.488Z,38.45
2017-09-26T23:23:55.886Z,40.65
2017-09-26T23:26:30.195Z,38.55
2017-09-26T23:29:04.844Z,38.17
2017-09-26T23:31:39.402Z,39.78
2017-09-26T23:34:14.179Z,38.42
2017-09-26T23:36:48.555Z,40.97
2017-09-26T23:39:23.007Z,38.38
2017-09-26T23:41:57.338Z,37.67
2017-09-26T23:44:32.569Z,38.97
2017-09-26T23:47:07.142Z,37.95
2017-09-26T23:49:41.487Z,39.28
2017-09-26T23:52:16.031Z,40.67
2017-09-26T23:54:51.242Z,37.58
2017-09-26T23:57:25.821Z,40.20
